Weather at Babelthuap Airport

Public forecast

Using degrees Celsius for public forecast. Weather courtesy of forecast.io.

Current aviation weather report (METAR) for Babelthuap Airport

Report is more than 6 hours old.

2022/11/14 14:50 (retrieved 2 years ago)

PTRO 141450Z 03004KT 12SM BKN014CB BKN100 OVC280 24/23 A2975 RMK CB ALQDS

Aviation forecast (TAF) for Babelthuap Airport

Forecast is more than 12 hours old.

2023/02/22 18:39 (retrieved 1 year ago)

TAF TAF PTRO 221735Z 2218/2318 05005KT P6SM VCSH SCT015 BKN120